Terminal Aerodrome Forecast
Issued by NWS

Home | Current Version | Previous Version | Text Only | Print | Product List | Glossary On
Versions: 1 2 3 4 5 6 7 8 9 10 11 12 13 14 15 16 17 18 19 20 21 22 23
089
FTUS43 KDLH 012127 AAC
TAFHYR
TAF AMD
KHYR 012127Z 0121/0218 VRB05KT P6SM VCSH OVC021
      TEMPO 0121/0123 3SM -SN BR OVC019
     FM020900 VRB04KT P6SM OVC009=

USA.gov is the U.S. government's official web portal to all federal, state and local government web resources and services.